createdAt,value
2018-05-12T00:01:45.236Z,18.24
2018-05-12T00:04:11.719Z,18.17
2018-05-12T00:06:38.147Z,18.23
2018-05-12T00:09:04.613Z,18.17
2018-05-12T00:11:31.046Z,18.01
2018-05-12T00:13:57.476Z,18.06
2018-05-12T00:16:23.921Z,18.15
2018-05-12T00:18:50.368Z,18.09
2018-05-12T00:21:16.786Z,18.06
2018-05-12T00:23:43.278Z,18.05
2018-05-12T00:26:09.727Z,18.05
2018-05-12T00:28:36.212Z,18.07
2018-05-12T00:31:03.570Z,17.93
2018-05-12T00:33:30.074Z,17.95
2018-05-12T00:35:56.474Z,18.10
2018-05-12T00:38:22.921Z,18.02
2018-05-12T00:40:49.467Z,18.12
2018-05-12T00:43:15.966Z,18.00
2018-05-12T00:45:42.395Z,18.04
2018-05-12T00:48:08.816Z,18.03
2018-05-12T00:50:35.250Z,17.97
2018-05-12T00:53:01.687Z,17.76
2018-05-12T00:55:30.190Z,17.88
2018-05-12T00:57:56.663Z,17.95
2018-05-12T01:00:23.178Z,17.83
2018-05-12T01:02:49.674Z,17.79
2018-05-12T01:05:16.179Z,17.81
2018-05-12T01:07:43.358Z,17.94
2018-05-12T01:10:09.864Z,17.84
2018-05-12T01:12:36.999Z,17.71
2018-05-12T01:15:03.486Z,17.87
2018-05-12T01:17:29.960Z,17.76
2018-05-12T01:19:56.379Z,17.79
2018-05-12T01:22:22.824Z,17.73
2018-05-12T01:24:49.326Z,17.66
2018-05-12T01:27:15.782Z,17.57
2018-05-12T01:29:42.283Z,17.57
2018-05-12T01:32:08.646Z,17.50
2018-05-12T01:34:35.122Z,17.34
2018-05-12T01:37:01.559Z,17.20
2018-05-12T01:39:27.950Z,17.10
2018-05-12T01:41:54.386Z,17.11
2018-05-12T01:44:20.831Z,17.03
2018-05-12T01:46:47.467Z,16.91
2018-05-12T01:49:14.634Z,16.78
2018-05-12T01:51:41.014Z,16.58
2018-05-12T01:54:07.457Z,16.42
2018-05-12T01:56:33.944Z,16.17
2018-05-12T01:59:00.353Z,16.05
2018-05-12T02:01:27.563Z,16.20
2018-05-12T02:03:54.063Z,16.11
2018-05-12T02:06:20.654Z,15.89
2018-05-12T02:08:47.104Z,16.17
2018-05-12T02:11:14.273Z,15.80
2018-05-12T02:13:40.735Z,15.82
2018-05-12T02:16:07.263Z,15.55
2018-05-12T02:18:33.696Z,15.32
2018-05-12T02:21:00.094Z,15.23
2018-05-12T02:23:26.552Z,15.09
2018-05-12T02:25:52.988Z,15.06
2018-05-12T02:28:19.422Z,14.96
2018-05-12T02:30:45.926Z,14.90
2018-05-12T02:33:12.394Z,15.18
2018-05-12T02:35:39.437Z,14.93
2018-05-12T02:38:05.981Z,14.78
2018-05-12T02:40:36.817Z,14.88
2018-05-12T02:43:03.318Z,14.76
2018-05-12T02:45:29.785Z,14.65
2018-05-12T02:47:56.221Z,14.59
2018-05-12T02:50:22.682Z,14.57
2018-05-12T02:52:49.097Z,14.49
2018-05-12T02:55:15.727Z,14.44
2018-05-12T02:57:42.140Z,14.64
2018-05-12T03:00:08.590Z,14.55
2018-05-12T03:02:35.003Z,14.37
2018-05-12T03:05:01.495Z,14.25
2018-05-12T03:07:27.962Z,14.27
2018-05-12T03:09:54.517Z,14.27
2018-05-12T03:12:20.946Z,14.16
2018-05-12T03:14:47.402Z,14.02
2018-05-12T03:17:13.894Z,13.98
2018-05-12T03:19:40.299Z,13.96
2018-05-12T03:22:06.693Z,13.91
2018-05-12T03:24:33.160Z,13.98
2018-05-12T03:26:59.583Z,13.88
2018-05-12T03:29:26.016Z,13.76
2018-05-12T03:31:52.419Z,13.57
2018-05-12T03:34:18.812Z,13.61
2018-05-12T03:36:45.200Z,13.60
2018-05-12T03:39:12.392Z,13.63
2018-05-12T03:41:38.836Z,13.73
2018-05-12T03:44:05.295Z,13.81
2018-05-12T03:46:31.716Z,13.65
2018-05-12T03:48:58.167Z,13.76
2018-05-12T03:51:24.565Z,13.79
2018-05-12T03:53:51.025Z,13.80
2018-05-12T03:56:17.436Z,13.71
2018-05-12T03:58:43.991Z,13.62
2018-05-12T04:01:10.432Z,13.51
2018-05-12T04:03:37.069Z,13.55
2018-05-12T04:06:22.060Z,13.54
2018-05-12T04:09:06.994Z,13.69
2018-05-12T04:11:53.698Z,13.64
2018-05-12T04:14:20.174Z,13.69
2018-05-12T04:16:47.116Z,13.73
2018-05-12T04:19:13.520Z,13.65
2018-05-12T04:21:40.759Z,13.54
2018-05-12T04:24:07.954Z,13.66
2018-05-12T04:26:34.439Z,13.85
2018-05-12T04:29:00.878Z,14.01
2018-05-12T04:31:28.082Z,13.92
2018-05-12T04:33:54.480Z,14.17
2018-05-12T04:36:21.635Z,14.18
2018-05-12T04:38:48.326Z,14.21
2018-05-12T04:41:15.111Z,14.14
2018-05-12T04:43:41.583Z,14.18
2018-05-12T04:46:08.057Z,14.18
2018-05-12T04:48:34.450Z,14.29
2018-05-12T04:51:00.951Z,14.33
2018-05-12T04:53:27.377Z,14.48
2018-05-12T04:55:54.572Z,14.47
2018-05-12T04:58:21.011Z,14.55
2018-05-12T05:00:47.425Z,14.47
2018-05-12T05:03:13.857Z,14.61
2018-05-12T05:05:40.316Z,14.84
2018-05-12T05:08:06.797Z,14.98
2018-05-12T05:10:33.322Z,14.91
2018-05-12T05:13:00.492Z,14.92
2018-05-12T05:15:26.880Z,15.08
2018-05-12T05:17:53.264Z,15.13
2018-05-12T05:20:19.780Z,15.20
2018-05-12T05:22:46.270Z,15.30
2018-05-12T05:25:12.768Z,15.23
2018-05-12T05:27:39.209Z,15.38
2018-05-12T05:30:05.660Z,15.51
2018-05-12T05:32:32.074Z,15.36
2018-05-12T05:34:58.500Z,15.73
2018-05-12T05:37:28.898Z,16.63
2018-05-12T05:39:55.337Z,17.50
2018-05-12T05:42:21.852Z,18.90
2018-05-12T05:44:48.302Z,19.68
2018-05-12T05:47:14.762Z,20.06
2018-05-12T05:49:41.226Z,20.13
2018-05-12T05:52:07.695Z,20.50
2018-05-12T05:54:34.112Z,20.85
2018-05-12T05:57:01.416Z,21.95
2018-05-12T05:59:27.792Z,22.25
2018-05-12T06:01:55.319Z,22.88
2018-05-12T06:04:21.765Z,23.82
2018-05-12T06:06:49.096Z,24.48
2018-05-12T06:09:15.475Z,22.38
2018-05-12T06:11:41.878Z,22.38
2018-05-12T06:14:08.475Z,20.62
2018-05-12T06:16:34.881Z,19.76
2018-05-12T06:19:01.327Z,19.36
2018-05-12T06:21:27.781Z,19.29
2018-05-12T06:23:54.278Z,19.75
2018-05-12T06:26:20.753Z,21.27
2018-05-12T06:28:47.337Z,21.99
2018-05-12T06:31:13.739Z,20.94
2018-05-12T06:33:40.204Z,20.22
2018-05-12T06:36:06.657Z,20.00
2018-05-12T06:38:33.341Z,19.39
2018-05-12T06:41:00.224Z,20.39
2018-05-12T06:43:26.655Z,21.35
2018-05-12T06:45:53.218Z,23.25
2018-05-12T06:48:19.706Z,24.23
2018-05-12T06:50:46.231Z,24.92
2018-05-12T06:53:12.672Z,25.38
2018-05-12T06:55:39.822Z,24.50
2018-05-12T06:58:06.975Z,24.00
2018-05-12T07:00:33.474Z,23.54
2018-05-12T07:02:59.905Z,23.23
2018-05-12T07:05:26.339Z,23.18
2018-05-12T07:07:52.838Z,22.12
2018-05-12T07:10:19.589Z,21.16
2018-05-12T07:12:46.022Z,21.19
2018-05-12T07:15:12.444Z,20.17
2018-05-12T07:17:38.894Z,19.46
2018-05-12T07:20:05.374Z,19.10
2018-05-12T07:22:32.601Z,19.08
2018-05-12T07:24:59.038Z,19.17
2018-05-12T07:27:26.208Z,19.27
2018-05-12T07:29:52.944Z,19.33
2018-05-12T07:32:20.160Z,19.52
2018-05-12T07:34:46.639Z,19.74
2018-05-12T07:37:13.232Z,19.64
2018-05-12T07:39:39.679Z,19.93
2018-05-12T07:42:06.889Z,20.12
2018-05-12T07:44:33.272Z,20.17
2018-05-12T07:46:59.774Z,20.43
2018-05-12T07:49:26.236Z,20.62
2018-05-12T07:51:53.479Z,20.90
2018-05-12T07:54:20.654Z,20.90
2018-05-12T07:56:47.152Z,20.87
2018-05-12T07:59:13.864Z,21.02
2018-05-12T08:01:40.407Z,20.96
2018-05-12T08:04:07.343Z,21.07
2018-05-12T08:06:33.747Z,21.56
2018-05-12T08:09:00.355Z,21.64
2018-05-12T08:11:26.894Z,21.68
2018-05-12T08:13:53.355Z,21.77
2018-05-12T08:16:19.863Z,21.81
2018-05-12T08:18:46.350Z,22.30
2018-05-12T08:21:12.829Z,21.99
2018-05-12T08:23:39.357Z,22.15
2018-05-12T08:26:06.602Z,22.32
2018-05-12T08:28:33.075Z,22.33
2018-05-12T08:30:59.554Z,22.67
2018-05-12T08:33:26.000Z,22.78
2018-05-12T08:35:52.506Z,22.74
2018-05-12T08:38:18.905Z,22.78
2018-05-12T08:40:45.343Z,22.92
2018-05-12T08:43:11.812Z,22.88
2018-05-12T08:45:38.220Z,23.09
2018-05-12T08:48:04.637Z,23.42
2018-05-12T08:50:31.141Z,23.71
2018-05-12T08:52:57.658Z,23.56
2018-05-12T08:55:24.225Z,23.33
2018-05-12T08:57:50.598Z,23.39
2018-05-12T09:00:17.017Z,23.74
2018-05-12T09:02:43.440Z,23.93
2018-05-12T09:05:09.926Z,23.92
2018-05-12T09:07:36.309Z,23.71
2018-05-12T09:10:02.849Z,23.63
2018-05-12T09:12:29.295Z,23.70
2018-05-12T09:14:55.752Z,23.78
2018-05-12T09:17:22.994Z,23.85
2018-05-12T09:19:50.216Z,23.84
2018-05-12T09:22:16.587Z,23.86
2018-05-12T09:24:43.831Z,24.04
2018-05-12T09:27:11.059Z,24.43
2018-05-12T09:29:37.479Z,24.72
2018-05-12T09:32:03.964Z,24.64
2018-05-12T09:34:30.440Z,24.75
2018-05-12T09:36:56.985Z,24.57
2018-05-12T09:39:23.398Z,24.97
2018-05-12T09:41:49.952Z,24.47
2018-05-12T09:44:16.381Z,24.19
2018-05-12T09:46:42.868Z,24.39
2018-05-12T09:49:09.454Z,24.40
2018-05-12T09:51:35.934Z,24.26
2018-05-12T09:54:02.417Z,24.09
2018-05-12T09:56:28.844Z,24.69
2018-05-12T09:58:55.286Z,25.01
2018-05-12T10:01:21.839Z,25.08
2018-05-12T10:03:48.389Z,24.65
2018-05-12T10:06:14.883Z,24.21
2018-05-12T10:08:41.396Z,24.22
2018-05-12T10:11:07.858Z,24.22
2018-05-12T10:13:35.260Z,24.21
2018-05-12T10:16:01.751Z,24.63
2018-05-12T10:18:28.207Z,24.88
2018-05-12T10:20:55.418Z,24.78
2018-05-12T10:23:21.999Z,24.96
2018-05-12T10:25:49.149Z,25.38
2018-05-12T10:28:19.877Z,25.53
2018-05-12T10:30:47.275Z,25.21
2018-05-12T10:33:13.674Z,25.47
2018-05-12T10:35:40.087Z,25.58
2018-05-12T10:38:07.298Z,25.69
2018-05-12T10:40:33.736Z,25.92
2018-05-12T10:43:00.282Z,25.78
2018-05-12T10:45:26.824Z,25.67
2018-05-12T10:47:53.235Z,25.55
2018-05-12T10:50:20.050Z,25.66
2018-05-12T10:52:46.504Z,25.80
2018-05-12T10:55:12.991Z,25.90
2018-05-12T10:57:39.531Z,25.97
2018-05-12T11:00:05.967Z,25.86
2018-05-12T11:02:32.451Z,25.92
2018-05-12T11:04:58.970Z,25.33
2018-05-12T11:07:25.358Z,25.49
2018-05-12T11:09:52.000Z,25.73
2018-05-12T11:12:18.573Z,25.96
2018-05-12T11:14:45.052Z,25.86
2018-05-12T11:17:11.537Z,25.40
2018-05-12T11:19:37.909Z,25.36
2018-05-12T11:22:04.398Z,25.12
2018-05-12T11:24:30.794Z,25.56
2018-05-12T11:26:57.149Z,25.28
2018-05-12T11:29:23.971Z,26.05
2018-05-12T11:31:50.380Z,26.04
2018-05-12T11:34:16.846Z,25.92
2018-05-12T11:36:43.305Z,26.13
2018-05-12T11:39:09.765Z,26.35
2018-05-12T11:41:37.290Z,26.17
2018-05-12T11:44:03.760Z,25.92
2018-05-12T11:46:30.918Z,26.51
2018-05-12T11:48:57.337Z,27.07
2018-05-12T11:51:25.017Z,27.18
2018-05-12T11:53:51.598Z,27.06
2018-05-12T11:56:18.106Z,27.03
2018-05-12T11:58:44.637Z,27.03
2018-05-12T12:01:11.130Z,27.23
2018-05-12T12:03:37.579Z,26.63
2018-05-12T12:06:04.785Z,26.40
2018-05-12T12:08:31.162Z,26.51
2018-05-12T12:10:58.402Z,26.80
2018-05-12T12:13:25.597Z,26.45
2018-05-12T12:15:52.037Z,26.48
2018-05-12T12:18:18.462Z,26.17
2018-05-12T12:20:45.067Z,26.44
2018-05-12T12:23:11.524Z,26.21
2018-05-12T12:25:37.961Z,26.74
2018-05-12T12:28:04.453Z,26.79
2018-05-12T12:30:31.617Z,26.96
2018-05-12T12:32:58.036Z,27.12
2018-05-12T12:35:25.222Z,27.46
2018-05-12T12:37:52.411Z,27.23
2018-05-12T12:40:18.947Z,27.66
2018-05-12T12:42:45.454Z,28.13
2018-05-12T12:45:11.909Z,27.91
2018-05-12T12:47:42.536Z,27.74
2018-05-12T12:50:09.579Z,27.74
2018-05-12T12:52:36.029Z,27.88
2018-05-12T12:55:03.232Z,28.10
2018-05-12T12:57:29.764Z,27.91
2018-05-12T12:59:56.301Z,27.06
2018-05-12T13:02:22.763Z,27.21
2018-05-12T13:04:49.283Z,27.45
2018-05-12T13:07:15.656Z,27.81
2018-05-12T13:09:42.852Z,27.89
2018-05-12T13:12:09.206Z,28.35
2018-05-12T13:14:35.713Z,28.40
2018-05-12T13:17:03.682Z,27.87
2018-05-12T13:19:30.111Z,27.32
2018-05-12T13:21:56.670Z,27.54
2018-05-12T13:24:23.183Z,27.62
2018-05-12T13:26:49.605Z,27.13
2018-05-12T13:29:16.127Z,27.67
2018-05-12T13:31:42.568Z,28.18
2018-05-12T13:34:09.016Z,28.16
2018-05-12T13:36:35.574Z,28.43
2018-05-12T13:39:02.251Z,28.68
2018-05-12T13:41:29.406Z,28.35
2018-05-12T13:43:55.835Z,28.54
2018-05-12T13:46:22.262Z,28.07
2018-05-12T13:48:48.837Z,27.73
2018-05-12T13:51:15.263Z,27.68
2018-05-12T13:53:41.688Z,28.14
2018-05-12T13:56:08.331Z,27.93
2018-05-12T13:58:34.743Z,27.60
2018-05-12T14:01:01.191Z,27.32
2018-05-12T14:03:27.653Z,27.41
2018-05-12T14:05:54.064Z,27.70
2018-05-12T14:08:20.765Z,28.05
2018-05-12T14:10:47.911Z,28.37
2018-05-12T14:13:15.074Z,27.89
2018-05-12T14:15:41.493Z,27.62
2018-05-12T14:18:08.784Z,27.77
2018-05-12T14:20:35.182Z,27.59
2018-05-12T14:23:01.860Z,27.70
2018-05-12T14:25:28.406Z,27.60
2018-05-12T14:27:54.829Z,27.43
2018-05-12T14:30:21.239Z,28.01
2018-05-12T14:32:47.769Z,27.85
2018-05-12T14:35:14.226Z,27.57
2018-05-12T14:37:40.630Z,27.93
2018-05-12T14:40:07.095Z,28.05
2018-05-12T14:42:33.583Z,28.27
2018-05-12T14:45:00.147Z,28.42
2018-05-12T14:47:26.609Z,28.22
2018-05-12T14:49:53.137Z,27.88
2018-05-12T14:52:19.621Z,27.54
2018-05-12T14:54:46.062Z,27.38
2018-05-12T14:57:12.448Z,27.60
2018-05-12T14:59:38.913Z,27.65
2018-05-12T15:02:05.352Z,27.91
2018-05-12T15:04:31.824Z,27.82
2018-05-12T15:06:58.268Z,28.04
2018-05-12T15:09:24.766Z,28.21
2018-05-12T15:11:51.239Z,28.41
2018-05-12T15:14:17.712Z,28.15
2018-05-12T15:16:44.167Z,27.79
2018-05-12T15:19:10.599Z,28.12
2018-05-12T15:21:37.204Z,28.09
2018-05-12T15:24:04.374Z,28.28
2018-05-12T15:26:30.833Z,28.44
2018-05-12T15:28:57.313Z,28.43
2018-05-12T15:31:24.638Z,28.64
2018-05-12T15:33:51.129Z,28.50
2018-05-12T15:36:17.896Z,28.48
2018-05-12T15:38:44.820Z,28.27
2018-05-12T15:41:11.370Z,28.58
2018-05-12T15:43:37.897Z,27.81
2018-05-12T15:46:04.539Z,27.68
2018-05-12T15:48:31.015Z,27.99
2018-05-12T15:50:58.219Z,27.98
2018-05-12T15:53:24.625Z,27.74
2018-05-12T15:55:51.715Z,28.14
2018-05-12T15:58:18.103Z,28.35
2018-05-12T16:00:44.566Z,27.87
2018-05-12T16:03:11.095Z,27.74
2018-05-12T16:05:37.540Z,27.74
2018-05-12T16:08:04.035Z,28.10
2018-05-12T16:10:30.490Z,28.32
2018-05-12T16:12:57.056Z,28.13
2018-05-12T16:15:23.582Z,27.95
2018-05-12T16:17:50.089Z,28.07
2018-05-12T16:20:16.701Z,28.07
2018-05-12T16:22:44.025Z,28.20
2018-05-12T16:25:11.251Z,28.00
2018-05-12T16:27:37.663Z,27.96
2018-05-12T16:30:04.163Z,27.82
2018-05-12T16:32:30.544Z,27.57
2018-05-12T16:34:57.019Z,27.57
2018-05-12T16:37:23.506Z,27.56
2018-05-12T16:39:50.422Z,27.61
2018-05-12T16:42:17.100Z,27.40
2018-05-12T16:44:43.649Z,27.30
2018-05-12T16:47:10.079Z,26.78
2018-05-12T16:49:37.337Z,26.72
2018-05-12T16:52:04.627Z,26.76
2018-05-12T16:54:31.167Z,26.54
2018-05-12T16:56:57.661Z,26.67
2018-05-12T16:59:24.048Z,26.65
2018-05-12T17:01:50.507Z,26.51
2018-05-12T17:04:16.967Z,26.60
2018-05-12T17:06:44.250Z,26.57
2018-05-12T17:09:10.722Z,26.62
2018-05-12T17:11:37.302Z,26.70
2018-05-12T17:14:03.749Z,26.50
2018-05-12T17:16:30.221Z,26.61
2018-05-12T17:18:57.539Z,26.60
2018-05-12T17:21:23.986Z,26.30
2018-05-12T17:23:50.456Z,26.01
2018-05-12T17:26:17.806Z,26.06
2018-05-12T17:28:44.318Z,25.90
2018-05-12T17:31:11.599Z,25.91
2018-05-12T17:33:38.155Z,25.90
2018-05-12T17:36:04.674Z,25.61
2018-05-12T17:38:31.330Z,25.43
2018-05-12T17:40:58.218Z,25.46
2018-05-12T17:43:24.756Z,25.11
2018-05-12T17:45:51.222Z,25.17
2018-05-12T17:48:18.401Z,25.22
2018-05-12T17:50:44.807Z,24.88
2018-05-12T17:53:11.312Z,24.90
2018-05-12T17:55:37.896Z,24.81
2018-05-12T17:58:04.357Z,24.55
2018-05-12T18:00:30.772Z,24.48
2018-05-12T18:02:57.923Z,24.36
2018-05-12T18:05:24.432Z,24.77
2018-05-12T18:07:51.037Z,24.46
2018-05-12T18:10:17.509Z,24.39
2018-05-12T18:12:44.218Z,24.24
2018-05-12T18:15:10.717Z,24.08
2018-05-12T18:17:37.170Z,24.05
2018-05-12T18:20:04.850Z,23.75
2018-05-12T18:22:31.488Z,23.64
2018-05-12T18:24:58.277Z,23.32
2018-05-12T18:27:24.820Z,23.43
2018-05-12T18:29:51.247Z,23.21
2018-05-12T18:32:17.695Z,23.64
2018-05-12T18:34:44.214Z,23.49
2018-05-12T18:37:10.656Z,23.54
2018-05-12T18:39:37.190Z,23.34
2018-05-12T18:42:03.672Z,23.14
2018-05-12T18:44:30.051Z,23.08
2018-05-12T18:46:56.491Z,22.99
2018-05-12T18:49:23.272Z,23.02
2018-05-12T18:51:49.811Z,23.02
2018-05-12T18:54:16.282Z,22.91
2018-05-12T18:56:42.860Z,22.93
2018-05-12T18:59:09.173Z,22.78
2018-05-12T19:01:35.584Z,22.77
2018-05-12T19:04:02.648Z,22.99
2018-05-12T19:06:29.052Z,23.02
2018-05-12T19:08:56.919Z,23.05
2018-05-12T19:11:23.560Z,23.16
2018-05-12T19:13:50.007Z,23.02
2018-05-12T19:16:16.552Z,23.32
2018-05-12T19:18:43.078Z,23.46
2018-05-12T19:21:09.748Z,23.39
2018-05-12T19:23:36.180Z,23.54
2018-05-12T19:26:02.706Z,23.76
2018-05-12T19:28:29.157Z,23.69
2018-05-12T19:30:55.636Z,23.60
2018-05-12T19:33:22.088Z,23.56
2018-05-12T19:35:48.662Z,23.54
2018-05-12T19:38:15.062Z,23.74
2018-05-12T19:40:42.469Z,23.73
2018-05-12T19:43:08.988Z,23.71
2018-05-12T19:45:35.448Z,23.76
2018-05-12T19:48:02.150Z,23.59
2018-05-12T19:50:28.726Z,23.80
2018-05-12T19:52:55.449Z,23.60
2018-05-12T19:55:22.007Z,23.64
2018-05-12T19:57:48.446Z,23.68
2018-05-12T20:00:14.965Z,23.66
2018-05-12T20:02:41.424Z,23.48
2018-05-12T20:05:08.611Z,23.64
2018-05-12T20:07:35.023Z,23.70
2018-05-12T20:10:05.811Z,23.70
2018-05-12T20:12:32.323Z,23.45
2018-05-12T20:14:58.761Z,23.58
2018-05-12T20:17:25.225Z,23.52
2018-05-12T20:19:51.703Z,23.50
2018-05-12T20:22:18.182Z,23.62
2018-05-12T20:24:44.607Z,23.71
2018-05-12T20:27:11.048Z,23.60
2018-05-12T20:29:37.515Z,23.79
2018-05-12T20:32:04.672Z,23.68
2018-05-12T20:34:31.301Z,23.49
2018-05-12T20:36:58.526Z,23.57
2018-05-12T20:39:24.978Z,23.34
2018-05-12T20:41:51.450Z,23.35
2018-05-12T20:44:17.840Z,23.20
2018-05-12T20:46:44.215Z,23.27
2018-05-12T20:49:11.097Z,23.29
2018-05-12T20:51:37.518Z,23.34
2018-05-12T20:54:03.975Z,23.37
2018-05-12T20:56:30.439Z,23.26
2018-05-12T20:58:56.810Z,23.42
2018-05-12T21:01:23.214Z,23.56
2018-05-12T21:03:49.712Z,23.56
2018-05-12T21:06:16.947Z,23.53
2018-05-12T21:08:43.415Z,23.52
2018-05-12T21:11:09.812Z,23.39
2018-05-12T21:13:36.223Z,23.26
2018-05-12T21:16:02.718Z,23.47
2018-05-12T21:18:29.076Z,23.44
2018-05-12T21:20:55.596Z,23.54
2018-05-12T21:23:22.059Z,23.50
2018-05-12T21:25:48.526Z,23.41
2018-05-12T21:28:15.047Z,23.30
2018-05-12T21:30:42.276Z,23.31
2018-05-12T21:33:08.914Z,23.28
2018-05-12T21:35:35.387Z,23.48
2018-05-12T21:38:01.840Z,23.44
2018-05-12T21:40:28.226Z,23.43
2018-05-12T21:42:55.570Z,23.40
2018-05-12T21:45:22.130Z,23.49
2018-05-12T21:47:48.653Z,23.45
2018-05-12T21:50:16.351Z,23.41
2018-05-12T21:52:42.777Z,23.50
2018-05-12T21:55:09.176Z,23.48
2018-05-12T21:57:36.435Z,23.35
2018-05-12T22:00:03.798Z,23.38
2018-05-12T22:02:30.974Z,23.48
2018-05-12T22:04:57.382Z,23.34
2018-05-12T22:07:23.824Z,23.51
2018-05-12T22:09:50.294Z,23.27
2018-05-12T22:12:16.745Z,23.37
2018-05-12T22:14:43.205Z,23.28
2018-05-12T22:17:09.590Z,23.07
2018-05-12T22:19:36.003Z,22.80
2018-05-12T22:22:02.550Z,22.36
2018-05-12T22:24:28.967Z,22.20
2018-05-12T22:26:55.405Z,21.90
2018-05-12T22:29:21.911Z,21.81
2018-05-12T22:31:48.388Z,21.70
2018-05-12T22:34:14.795Z,21.58
2018-05-12T22:36:41.292Z,21.55
2018-05-12T22:39:08.457Z,21.57
2018-05-12T22:41:34.879Z,21.45
2018-05-12T22:44:01.334Z,21.38
2018-05-12T22:46:27.735Z,21.34
2018-05-12T22:48:55.130Z,21.30
2018-05-12T22:51:21.976Z,21.17
2018-05-12T22:53:48.480Z,21.07
2018-05-12T22:56:14.886Z,20.93
2018-05-12T22:58:42.011Z,20.91
2018-05-12T23:01:08.459Z,20.80
2018-05-12T23:03:34.855Z,20.77
2018-05-12T23:06:01.337Z,20.91
2018-05-12T23:08:27.757Z,20.73
2018-05-12T23:10:54.246Z,20.59
2018-05-12T23:13:20.728Z,20.63
2018-05-12T23:15:47.920Z,20.84
2018-05-12T23:18:14.361Z,20.58
2018-05-12T23:20:40.732Z,20.42
2018-05-12T23:23:07.167Z,20.44
2018-05-12T23:25:33.576Z,20.57
2018-05-12T23:28:00.010Z,20.85
2018-05-12T23:30:26.414Z,20.62
2018-05-12T23:32:52.818Z,20.47
2018-05-12T23:35:19.282Z,20.55
2018-05-12T23:37:45.690Z,20.61
2018-05-12T23:40:12.098Z,20.64
2018-05-12T23:42:39.290Z,20.61
2018-05-12T23:45:05.738Z,20.58
2018-05-12T23:47:32.196Z,20.90
2018-05-12T23:49:58.611Z,20.93
2018-05-12T23:52:26.873Z,20.88
2018-05-12T23:54:53.317Z,20.93
2018-05-12T23:57:19.725Z,21.04
2018-05-12T23:59:46.162Z,20.91
